createdAt,value
2022-08-20T00:02:16.427Z,12.40
2022-08-20T00:04:45.572Z,9.85
2022-08-20T00:07:14.674Z,9.23
2022-08-20T00:09:43.369Z,9.20
2022-08-20T00:12:12.949Z,11.63
2022-08-20T00:14:41.889Z,9.65
2022-08-20T00:17:11.654Z,8.27
2022-08-20T00:19:40.052Z,8.63
2022-08-20T00:22:08.602Z,7.40
2022-08-20T00:24:36.987Z,8.88
2022-08-20T00:27:05.582Z,9.70
2022-08-20T00:29:33.963Z,9.88
2022-08-20T00:32:02.378Z,6.90
2022-08-20T00:34:32.175Z,7.72
2022-08-20T00:37:00.542Z,11.13
2022-08-20T00:39:29.657Z,8.32
2022-08-20T00:41:58.117Z,11.68
2022-08-20T00:44:26.504Z,12.05
2022-08-20T00:46:55.631Z,11.75
2022-08-20T00:49:27.955Z,9.70
2022-08-20T00:52:02.158Z,10.38
2022-08-20T00:54:34.946Z,11.30
2022-08-20T00:57:07.683Z,10.07
2022-08-20T00:59:39.964Z,9.48
2022-08-20T01:02:12.668Z,7.70
2022-08-20T01:04:43.704Z,10.50
2022-08-20T01:07:13.469Z,10.43
2022-08-20T01:09:58.210Z,12.30
2022-08-20T01:12:30.346Z,9.55
2022-08-20T01:15:02.064Z,9.15
2022-08-20T01:17:36.200Z,9.70
2022-08-20T01:20:09.471Z,9.80
2022-08-20T01:23:02.982Z,8.93
2022-08-20T01:25:42.009Z,7.97
2022-08-20T01:28:11.515Z,8.63
2022-08-20T01:30:41.740Z,9.25
2022-08-20T01:33:10.367Z,7.07
2022-08-20T01:35:41.045Z,7.93
2022-08-20T01:38:10.632Z,8.20
2022-08-20T01:41:14.777Z,10.05
2022-08-20T01:43:43.577Z,8.80
2022-08-20T01:46:13.613Z,8.68
2022-08-20T01:48:43.259Z,8.30
2022-08-20T01:51:14.643Z,8.18
2022-08-20T01:53:45.344Z,7.82
2022-08-20T01:56:17.170Z,9.43
2022-08-20T01:58:49.414Z,8.63
2022-08-20T02:01:28.304Z,12.20
2022-08-20T02:03:57.668Z,10.57
2022-08-20T02:06:28.344Z,11.25
2022-08-20T02:08:59.248Z,10.85
2022-08-20T02:11:31.287Z,12.20
2022-08-20T02:13:59.762Z,11.68
2022-08-20T02:16:31.219Z,10.57
2022-08-20T02:19:03.378Z,10.82
2022-08-20T02:21:33.815Z,12.55
2022-08-20T02:24:02.751Z,9.95
2022-08-20T02:26:32.769Z,9.85
2022-08-20T02:29:01.314Z,9.07
2022-08-20T02:31:34.231Z,10.27
2022-08-20T02:34:18.170Z,9.70
2022-08-20T02:36:52.468Z,8.95
2022-08-20T02:39:20.826Z,11.68
2022-08-20T02:41:51.029Z,9.90
2022-08-20T02:44:20.618Z,10.35
2022-08-20T02:46:50.061Z,8.63
2022-08-20T02:49:19.327Z,13.30
2022-08-20T02:51:47.808Z,11.63
2022-08-20T02:54:17.735Z,11.30
2022-08-20T02:56:46.147Z,9.95
2022-08-20T02:59:19.613Z,9.90
2022-08-20T03:01:59.337Z,12.57
2022-08-20T03:04:29.587Z,9.35
2022-08-20T03:06:59.241Z,10.30
2022-08-20T03:09:27.698Z,8.93
2022-08-20T03:11:56.157Z,9.73
2022-08-20T03:14:26.368Z,9.00
2022-08-20T03:16:54.770Z,8.82
2022-08-20T03:19:23.358Z,10.48
2022-08-20T03:21:51.719Z,9.27
2022-08-20T03:24:20.609Z,8.88
2022-08-20T03:26:49.056Z,8.57
2022-08-20T03:29:18.623Z,8.27
2022-08-20T03:31:48.371Z,8.13
2022-08-20T03:34:16.751Z,8.10
2022-08-20T03:36:45.178Z,9.05
2022-08-20T03:39:13.546Z,8.30
2022-08-20T03:41:41.877Z,7.93
2022-08-20T03:44:10.312Z,7.90
2022-08-20T03:46:39.988Z,8.50
2022-08-20T03:49:09.746Z,8.95
2022-08-20T03:51:57.314Z,7.13
2022-08-20T03:54:31.519Z,7.65
2022-08-20T03:57:02.270Z,6.80
2022-08-20T03:59:32.964Z,7.47
2022-08-20T04:02:01.453Z,7.78
2022-08-20T04:04:31.291Z,7.93
2022-08-20T04:06:59.781Z,7.13
2022-08-20T04:09:28.880Z,7.18
2022-08-20T04:12:00.961Z,7.93
2022-08-20T04:14:29.462Z,7.60
2022-08-20T04:16:58.623Z,8.07
2022-08-20T04:19:30.138Z,7.60
2022-08-20T04:22:03.035Z,8.50
2022-08-20T04:24:32.048Z,7.90
2022-08-20T04:27:02.566Z,7.22
2022-08-20T04:29:32.040Z,8.70
2022-08-20T04:32:02.792Z,8.43
2022-08-20T04:34:35.546Z,8.00
2022-08-20T04:37:06.545Z,7.38
2022-08-20T04:40:06.033Z,7.93
2022-08-20T04:42:35.945Z,7.85
2022-08-20T04:45:05.669Z,6.88
2022-08-20T04:47:35.047Z,7.28
2022-08-20T04:50:03.505Z,8.38
2022-08-20T04:52:33.261Z,7.40
2022-08-20T04:55:02.063Z,7.95
2022-08-20T04:57:30.498Z,7.25
2022-08-20T05:00:49.158Z,7.82
2022-08-20T05:03:18.442Z,7.93
2022-08-20T05:05:47.788Z,6.60
2022-08-20T05:08:20.812Z,7.65
2022-08-20T05:10:49.182Z,7.95
2022-08-20T05:13:27.109Z,7.65
2022-08-20T05:15:56.607Z,6.50
2022-08-20T05:18:26.507Z,6.97
2022-08-20T05:21:05.975Z,6.03
2022-08-20T05:23:37.222Z,7.43
2022-08-20T05:26:07.493Z,6.70
2022-08-20T05:28:54.235Z,6.18
2022-08-20T05:31:30.883Z,6.65
2022-08-20T05:34:02.252Z,6.18
2022-08-20T05:36:30.807Z,5.68
2022-08-20T05:39:00.500Z,6.57
2022-08-20T05:41:30.565Z,5.38
2022-08-20T05:44:01.870Z,5.10
2022-08-20T05:46:32.215Z,8.13
2022-08-20T05:49:01.975Z,7.10
2022-08-20T05:51:31.217Z,6.78
2022-08-20T05:54:00.934Z,6.82
2022-08-20T05:56:31.112Z,6.63
2022-08-20T05:59:02.845Z,7.75
2022-08-20T06:01:32.016Z,6.55
2022-08-20T06:04:17.716Z,5.97
2022-08-20T06:06:47.523Z,6.60
2022-08-20T06:09:30.528Z,6.30
2022-08-20T06:12:02.908Z,5.82
2022-08-20T06:14:31.938Z,6.00
2022-08-20T06:17:05.847Z,6.90
2022-08-20T06:19:34.843Z,6.65
2022-08-20T06:22:08.683Z,7.43
2022-08-20T06:24:49.000Z,6.30
2022-08-20T06:27:20.255Z,5.72
2022-08-20T06:29:49.198Z,5.47
2022-08-20T06:32:18.146Z,5.25
2022-08-20T06:34:50.711Z,6.45
2022-08-20T06:37:23.172Z,6.35
2022-08-20T06:40:00.836Z,6.63
2022-08-20T06:42:29.596Z,6.00
2022-08-20T06:44:59.529Z,5.72
2022-08-20T06:47:27.841Z,6.88
2022-08-20T06:49:56.182Z,7.47
2022-08-20T06:52:51.613Z,7.85
2022-08-20T06:55:17.453Z,6.75
2022-08-20T06:57:47.808Z,8.48
2022-08-20T07:00:20.692Z,10.75
2022-08-20T07:02:49.052Z,13.80
2022-08-20T07:05:17.591Z,12.05
2022-08-20T07:07:47.443Z,13.10
2022-08-20T07:10:18.953Z,17.08
2022-08-20T07:12:50.528Z,17.55
2022-08-20T07:15:20.911Z,22.17
2022-08-20T07:17:56.402Z,33.10
2022-08-20T07:20:28.677Z,36.28
2022-08-20T07:22:57.185Z,31.35
2022-08-20T07:25:27.358Z,33.33
2022-08-20T07:28:01.887Z,36.53
2022-08-20T07:30:56.105Z,33.22
2022-08-20T07:33:26.309Z,32.53
2022-08-20T07:35:57.005Z,30.77
2022-08-20T07:38:27.317Z,34.17
2022-08-20T07:40:59.382Z,29.83
2022-08-20T07:43:28.314Z,29.38
2022-08-20T07:46:00.762Z,29.48
2022-08-20T07:48:32.534Z,28.20
2022-08-20T07:51:04.239Z,32.33
2022-08-20T07:53:36.016Z,27.27
2022-08-20T07:56:10.142Z,26.88
2022-08-20T07:58:42.504Z,23.05
2022-08-20T08:01:11.886Z,24.30
2022-08-20T08:03:49.922Z,22.75
2022-08-20T08:06:30.455Z,23.08
2022-08-20T08:09:04.713Z,21.95
2022-08-20T08:11:37.910Z,25.40
2022-08-20T08:14:08.090Z,25.05
2022-08-20T08:16:37.330Z,27.67
2022-08-20T08:19:09.923Z,23.67
2022-08-20T08:21:38.972Z,22.60
2022-08-20T08:24:07.485Z,23.63
2022-08-20T08:26:37.239Z,22.23
2022-08-20T08:29:07.527Z,19.17
2022-08-20T08:31:35.929Z,28.25
2022-08-20T08:34:04.395Z,27.98
2022-08-20T08:36:32.756Z,24.40
2022-08-20T08:39:01.166Z,21.88
2022-08-20T08:41:33.600Z,24.17
2022-08-20T08:44:08.149Z,23.13
2022-08-20T08:46:40.941Z,25.38
2022-08-20T08:49:12.885Z,27.23
2022-08-20T08:51:44.026Z,25.20
2022-08-20T08:54:17.650Z,29.95
2022-08-20T08:56:50.269Z,23.70
2022-08-20T08:59:23.087Z,24.70
2022-08-20T09:01:57.224Z,23.42
2022-08-20T09:04:31.666Z,22.40
2022-08-20T09:07:02.804Z,24.02
2022-08-20T09:09:33.911Z,22.98
2022-08-20T09:12:07.029Z,26.50
2022-08-20T09:14:37.707Z,20.90
2022-08-20T09:17:06.852Z,21.48
2022-08-20T09:19:35.435Z,21.85
2022-08-20T09:22:09.600Z,21.02
2022-08-20T09:24:38.045Z,21.23
2022-08-20T09:27:07.211Z,17.83
2022-08-20T09:29:37.505Z,20.70
2022-08-20T09:32:08.312Z,18.70
2022-08-20T09:34:39.395Z,20.75
2022-08-20T09:37:08.363Z,19.52
2022-08-20T09:39:36.941Z,19.25
2022-08-20T09:42:09.758Z,16.83
2022-08-20T09:44:40.083Z,13.88
2022-08-20T09:47:08.754Z,17.90
2022-08-20T09:49:37.808Z,17.13
2022-08-20T09:52:09.334Z,20.38
2022-08-20T09:54:46.259Z,20.55
2022-08-20T09:57:16.557Z,19.80
2022-08-20T09:59:49.717Z,15.95
2022-08-20T10:02:18.045Z,16.70
2022-08-20T10:04:46.453Z,23.80
2022-08-20T10:07:16.476Z,18.73
2022-08-20T10:09:45.065Z,17.65
2022-08-20T10:12:13.574Z,19.40
2022-08-20T10:14:41.966Z,18.13
2022-08-20T10:17:11.769Z,19.13
2022-08-20T10:19:40.210Z,17.80
2022-08-20T10:22:08.590Z,16.98
2022-08-20T10:24:37.006Z,13.73
2022-08-20T10:27:05.991Z,16.45
2022-08-20T10:29:35.114Z,16.00
2022-08-20T10:32:12.393Z,16.95
2022-08-20T10:34:41.708Z,16.10
2022-08-20T10:37:11.001Z,17.23
2022-08-20T10:39:39.685Z,20.80
2022-08-20T10:42:08.275Z,18.38
2022-08-20T10:44:36.623Z,18.83
2022-08-20T10:47:18.430Z,16.88
2022-08-20T10:49:47.363Z,12.68
2022-08-20T10:52:15.751Z,13.77
2022-08-20T10:54:44.236Z,15.13
2022-08-20T10:57:16.291Z,16.92
2022-08-20T10:59:46.796Z,17.08
2022-08-20T11:02:17.497Z,14.75
2022-08-20T11:04:46.187Z,19.02
2022-08-20T11:07:17.765Z,14.52
2022-08-20T11:09:48.203Z,16.15
2022-08-20T11:12:17.388Z,19.58
2022-08-20T11:14:46.140Z,18.52
2022-08-20T11:17:19.699Z,18.48
2022-08-20T11:19:48.158Z,23.17
2022-08-20T11:22:17.274Z,17.08
2022-08-20T11:24:47.115Z,16.48
2022-08-20T11:27:22.778Z,18.05
2022-08-20T11:29:51.545Z,20.13
2022-08-20T11:32:21.883Z,18.02
2022-08-20T11:34:50.552Z,14.40
2022-08-20T11:37:21.504Z,17.80
2022-08-20T11:39:50.150Z,17.70
2022-08-20T11:42:18.771Z,20.73
2022-08-20T11:44:47.209Z,16.80
2022-08-20T11:47:24.540Z,18.58
2022-08-20T11:49:58.548Z,14.60
2022-08-20T11:52:27.314Z,19.65
2022-08-20T11:54:57.914Z,17.45
2022-08-20T11:57:29.528Z,16.83
2022-08-20T12:00:00.573Z,17.77
2022-08-20T12:02:31.026Z,13.43
2022-08-20T12:04:59.939Z,12.18
2022-08-20T12:07:28.418Z,18.17
2022-08-20T12:09:56.842Z,14.73
2022-08-20T12:12:25.539Z,13.60
2022-08-20T12:14:55.529Z,12.10
2022-08-20T12:17:28.485Z,12.50
2022-08-20T12:19:59.830Z,11.27
2022-08-20T12:22:28.196Z,16.80
2022-08-20T12:24:56.658Z,14.70
2022-08-20T12:27:27.109Z,13.55
2022-08-20T12:29:57.334Z,12.90
2022-08-20T12:32:27.563Z,10.90
2022-08-20T12:34:56.286Z,12.23
2022-08-20T12:37:28.414Z,10.63
2022-08-20T12:39:58.866Z,9.25
2022-08-20T12:42:29.190Z,10.38
2022-08-20T12:44:57.609Z,14.32
2022-08-20T12:47:28.708Z,14.50
2022-08-20T12:50:00.341Z,14.05
2022-08-20T12:52:31.533Z,10.20
2022-08-20T12:55:00.506Z,9.50
2022-08-20T12:57:31.985Z,10.07
2022-08-20T13:00:03.701Z,14.77
2022-08-20T13:02:33.206Z,10.95
2022-08-20T13:05:04.960Z,11.18
2022-08-20T13:07:35.496Z,13.23
2022-08-20T13:10:06.577Z,9.23
2022-08-20T13:12:35.251Z,10.05
2022-08-20T13:15:03.679Z,10.68
2022-08-20T13:17:38.764Z,10.57
2022-08-20T13:20:11.614Z,12.30
2022-08-20T13:22:42.082Z,9.35
2022-08-20T13:25:11.857Z,12.27
2022-08-20T13:27:42.346Z,10.98
2022-08-20T13:30:14.932Z,8.43
2022-08-20T13:32:43.718Z,9.07
2022-08-20T13:35:13.821Z,9.23
2022-08-20T13:37:43.847Z,13.90
2022-08-20T13:40:13.030Z,8.95
2022-08-20T13:42:41.461Z,12.23
2022-08-20T13:45:11.313Z,10.80
2022-08-20T13:47:41.737Z,10.95
2022-08-20T13:50:12.922Z,9.40
2022-08-20T13:52:43.422Z,7.18
2022-08-20T13:55:15.226Z,9.75
2022-08-20T13:57:43.912Z,10.98
2022-08-20T14:00:16.425Z,11.77
2022-08-20T14:02:45.485Z,13.15
2022-08-20T14:05:17.809Z,10.05
2022-08-20T14:07:50.677Z,8.20
2022-08-20T14:10:22.428Z,10.18
2022-08-20T14:12:51.713Z,9.13
2022-08-20T14:15:20.201Z,9.27
2022-08-20T14:17:52.617Z,7.55
2022-08-20T14:20:23.566Z,10.13
2022-08-20T14:22:53.401Z,8.23
2022-08-20T14:25:23.955Z,9.20
2022-08-20T14:27:52.704Z,8.90
2022-08-20T14:30:24.400Z,8.73
2022-08-20T14:32:52.817Z,7.80
2022-08-20T14:35:21.344Z,6.78
2022-08-20T14:37:53.619Z,7.00
2022-08-20T14:40:24.257Z,8.38
2022-08-20T14:42:52.718Z,9.38
2022-08-20T14:45:22.320Z,9.32
2022-08-20T14:47:54.187Z,7.88
2022-08-20T14:50:26.014Z,7.53
2022-08-20T14:52:57.027Z,6.47
2022-08-20T14:55:28.045Z,7.07
2022-08-20T14:57:56.823Z,8.23
2022-08-20T15:00:27.540Z,7.15
2022-08-20T15:02:57.713Z,7.60
2022-08-20T15:05:26.777Z,7.97
2022-08-20T15:07:58.101Z,9.13
2022-08-20T15:10:30.864Z,10.32
2022-08-20T15:12:59.952Z,8.70
2022-08-20T15:15:28.338Z,7.90
2022-08-20T15:18:00.002Z,7.50
2022-08-20T15:20:31.010Z,8.35
2022-08-20T15:23:00.994Z,7.82
2022-08-20T15:25:36.913Z,5.88
2022-08-20T15:28:08.170Z,9.15
2022-08-20T15:30:38.030Z,7.78
2022-08-20T15:33:06.681Z,8.32
2022-08-20T15:35:35.267Z,6.97
2022-08-20T15:38:05.271Z,6.95
2022-08-20T15:40:34.041Z,7.53
2022-08-20T15:43:04.669Z,8.60
2022-08-20T15:45:33.963Z,7.88
2022-08-20T15:48:09.527Z,7.00
2022-08-20T15:50:55.144Z,6.78
2022-08-20T15:53:29.827Z,7.68
2022-08-20T15:56:05.066Z,9.18
2022-08-20T15:58:41.372Z,7.65
2022-08-20T16:01:24.410Z,9.23
2022-08-20T16:04:25.910Z,7.13
2022-08-20T16:07:01.425Z,6.55
2022-08-20T16:09:44.746Z,8.30
2022-08-20T16:12:20.565Z,7.28
2022-08-20T16:14:58.754Z,5.22
2022-08-20T16:17:38.916Z,6.95
2022-08-20T16:20:13.495Z,5.00
2022-08-20T16:22:44.730Z,8.00
2022-08-20T16:25:15.798Z,4.95
2022-08-20T16:27:54.040Z,5.43
2022-08-20T16:30:32.312Z,6.53
2022-08-20T16:33:04.241Z,8.68
2022-08-20T16:35:35.403Z,7.15
2022-08-20T16:38:12.346Z,5.95
2022-08-20T16:40:49.656Z,6.10
2022-08-20T16:43:24.018Z,6.60
2022-08-20T16:48:26.442Z,7.15
2022-08-20T16:51:02.539Z,7.25
2022-08-20T16:53:31.218Z,6.43
2022-08-20T16:56:00.938Z,5.60
2022-08-20T16:58:29.353Z,7.78
2022-08-20T17:01:10.979Z,7.30
2022-08-20T17:03:41.046Z,6.32
2022-08-20T17:06:20.358Z,28.40
2022-08-20T17:08:50.893Z,10.15
2022-08-20T17:11:29.098Z,8.82
2022-08-20T17:14:10.866Z,9.43
2022-08-20T17:16:45.477Z,6.57
2022-08-20T17:19:19.348Z,5.57
2022-08-20T17:21:50.569Z,5.68
2022-08-20T17:24:25.931Z,7.60
2022-08-20T17:27:01.640Z,5.43
2022-08-20T17:29:32.346Z,6.65
2022-08-20T17:32:09.132Z,6.53
2022-08-20T17:34:45.352Z,6.03
2022-08-20T17:37:21.611Z,9.35
2022-08-20T17:39:52.958Z,8.02
2022-08-20T17:42:26.011Z,7.53
2022-08-20T17:45:00.614Z,6.25
2022-08-20T17:47:39.646Z,6.40
2022-08-20T17:50:14.211Z,10.70
2022-08-20T17:52:48.098Z,18.05
2022-08-20T17:55:16.607Z,21.23
2022-08-20T17:57:49.178Z,37.45
2022-08-20T18:00:23.377Z,17.67
2022-08-20T18:05:22.946Z,22.30
2022-08-20T18:08:08.477Z,38.38
2022-08-20T18:10:43.460Z,18.80
2022-08-20T18:13:18.693Z,21.17
2022-08-20T18:15:53.604Z,22.92
2022-08-20T18:18:30.171Z,13.13
2022-08-20T18:21:21.634Z,14.30
2022-08-20T18:23:54.000Z,11.45
2022-08-20T18:26:28.228Z,10.05
2022-08-20T18:31:32.390Z,10.88
2022-08-20T18:34:11.933Z,10.18
2022-08-20T18:36:42.392Z,8.65
2022-08-20T18:39:24.293Z,7.60
2022-08-20T18:42:00.061Z,7.38
2022-08-20T18:44:35.662Z,7.32
2022-08-20T18:47:08.335Z,5.85
2022-08-20T18:49:38.771Z,9.10
2022-08-20T18:52:12.599Z,9.23
2022-08-20T18:54:43.476Z,8.60
2022-08-20T18:57:21.581Z,7.32
2022-08-20T18:59:57.674Z,7.65
2022-08-20T19:02:29.843Z,7.18
2022-08-20T19:05:02.193Z,7.47
2022-08-20T19:07:48.375Z,7.72
2022-08-20T19:10:32.628Z,4.75
2022-08-20T19:13:20.512Z,5.78
2022-08-20T19:15:54.206Z,5.97
2022-08-20T19:18:27.518Z,6.82
2022-08-20T19:20:58.832Z,6.22
2022-08-20T19:23:30.358Z,4.90
2022-08-20T19:26:01.567Z,5.43
2022-08-20T19:28:35.848Z,6.35
2022-08-20T19:31:13.107Z,5.95
2022-08-20T19:33:44.052Z,5.35
2022-08-20T19:36:15.431Z,5.40
2022-08-20T19:38:46.255Z,4.82
2022-08-20T19:41:28.873Z,4.95
2022-08-20T19:44:00.697Z,6.25
2022-08-20T19:46:34.561Z,6.00
2022-08-20T19:49:24.819Z,5.72
2022-08-20T19:52:06.591Z,5.28
2022-08-20T19:54:47.881Z,5.10
2022-08-20T19:57:18.246Z,7.13
2022-08-20T19:59:56.034Z,18.90
2022-08-20T20:02:27.823Z,16.70
2022-08-20T20:04:58.105Z,15.60
2022-08-20T20:07:30.289Z,13.02
2022-08-20T20:09:59.566Z,11.63
2022-08-20T20:12:28.254Z,12.82
2022-08-20T20:14:56.921Z,13.07
2022-08-20T20:17:32.793Z,11.57
2022-08-20T20:20:03.645Z,11.75
2022-08-20T20:22:34.306Z,10.45
2022-08-20T20:25:08.686Z,9.98
2022-08-20T20:30:09.197Z,9.10
2022-08-20T20:32:45.098Z,7.75
2022-08-20T20:35:26.581Z,8.43
2022-08-20T20:38:00.380Z,7.63
2022-08-20T20:40:35.932Z,7.57
2022-08-20T20:43:06.616Z,7.18
2022-08-20T20:45:37.841Z,6.97
2022-08-20T20:48:20.623Z,6.60
2022-08-20T20:50:50.987Z,6.80
2022-08-20T20:53:32.471Z,7.30
2022-08-20T20:56:28.981Z,5.47
2022-08-20T20:59:00.180Z,5.45
2022-08-20T21:01:46.146Z,5.80
2022-08-20T21:04:21.267Z,6.10
2022-08-20T21:06:50.142Z,6.75
2022-08-20T21:09:19.647Z,7.70
2022-08-20T21:11:48.685Z,5.97
2022-08-20T21:14:18.264Z,6.38
2022-08-20T21:16:46.701Z,5.90
2022-08-20T21:19:16.077Z,5.70
2022-08-20T21:21:45.850Z,5.63
2022-08-20T21:24:14.283Z,18.35
2022-08-20T21:26:42.840Z,9.32
2022-08-20T21:29:14.430Z,20.27
2022-08-20T21:31:45.140Z,18.08
2022-08-20T21:34:16.083Z,8.27
2022-08-20T21:36:46.477Z,7.47
2022-08-20T21:39:15.497Z,7.38
2022-08-20T21:41:45.143Z,7.28
2022-08-20T21:44:21.206Z,6.38
2022-08-20T21:46:50.466Z,7.20
2022-08-20T21:49:20.364Z,6.85
2022-08-20T21:51:50.918Z,7.15
2022-08-20T21:54:20.489Z,6.85
2022-08-20T21:56:52.955Z,5.68
2022-08-20T21:59:23.531Z,6.45
2022-08-20T22:01:52.629Z,6.30
2022-08-20T22:04:21.301Z,7.90
2022-08-20T22:06:51.045Z,7.80
2022-08-20T22:09:19.449Z,8.77
2022-08-20T22:11:53.858Z,9.45
2022-08-20T22:14:23.709Z,7.20
2022-08-20T22:16:52.066Z,7.45
2022-08-20T22:19:20.467Z,6.63
2022-08-20T22:21:49.418Z,7.00
2022-08-20T22:24:19.162Z,6.82
2022-08-20T22:26:47.530Z,6.10
2022-08-20T22:29:15.938Z,7.22
2022-08-20T22:31:44.963Z,9.05
2022-08-20T22:34:15.086Z,6.93
2022-08-20T22:36:43.576Z,6.78
2022-08-20T22:39:12.013Z,7.35
2022-08-20T22:41:41.812Z,7.70
2022-08-20T22:44:10.292Z,10.05
2022-08-20T22:46:46.435Z,6.85
2022-08-20T22:49:19.356Z,7.00
2022-08-20T22:51:47.728Z,6.70
2022-08-20T22:54:20.395Z,7.32
2022-08-20T22:56:51.060Z,5.47
2022-08-20T22:59:20.640Z,4.95
2022-08-20T23:01:49.411Z,5.82
2022-08-20T23:04:23.296Z,5.15
2022-08-20T23:06:51.858Z,5.07
2022-08-20T23:09:21.226Z,5.15
2022-08-20T23:11:51.585Z,5.40
2022-08-20T23:14:20.277Z,5.82
2022-08-20T23:16:57.115Z,5.40
2022-08-20T23:19:26.300Z,5.70
2022-08-20T23:21:54.681Z,6.03
2022-08-20T23:24:23.129Z,5.75
2022-08-20T23:26:53.587Z,6.28
2022-08-20T23:29:25.502Z,5.13
2022-08-20T23:31:55.638Z,4.88
2022-08-20T23:34:24.602Z,6.30
2022-08-20T23:36:54.125Z,6.57
2022-08-20T23:39:23.001Z,5.07
2022-08-20T23:41:53.041Z,5.53
2022-08-20T23:44:26.344Z,5.63
2022-08-20T23:46:56.541Z,7.00
2022-08-20T23:49:25.099Z,6.45
2022-08-20T23:51:53.613Z,6.70
2022-08-20T23:54:22.153Z,5.63
2022-08-20T23:56:52.053Z,6.13
2022-08-20T23:59:25.749Z,5.50
